Time;durP1;ratioP1;P1;durP2;ratioP2;P2;SDS_P1;SDS_P2;PMS_P1;PMS_P2;Temp;Humidity;BMP_temperature;BMP_pressure;BME280_temperature;BME280_humidity;BME280_pressure;Samples;Min_cycle;Max_cycle;Signal;HPM_P1;HPM_P2
2022/03/30 00:01:54;;;;;;;23.30;14.27;;;4.50;99.90;;;;;;5015209;28;20042;-68
2022/03/30 00:04:19;;;;;;;23.40;14.40;;;4.40;99.90;;;;;;4997676;28;20048;-67
2022/03/30 00:06:45;;;;;;;28.30;14.85;;;4.50;99.90;;;;;;4999332;28;20498;-67
2022/03/30 00:09:11;;;;;;;25.42;14.32;;;4.50;99.90;;;;;;5029099;28;20030;-67
2022/03/30 00:11:36;;;;;;;31.27;15.10;;;4.40;99.90;;;;;;5018079;28;20049;-67
2022/03/30 00:14:03;;;;;;;23.52;13.88;;;4.50;99.90;;;;;;4995487;28;20589;-67
2022/03/30 00:16:28;;;;;;;28.42;15.57;;;4.50;99.90;;;;;;4997489;28;20398;-67
2022/03/30 00:18:54;;;;;;;31.48;15.00;;;4.50;99.90;;;;;;5034381;28;20053;-68
2022/03/30 00:21:21;;;;;;;29.60;15.63;;;4.50;99.90;;;;;;4995181;28;20049;-68
2022/03/30 00:23:47;;;;;;;24.10;15.00;;;4.50;99.90;;;;;;4999536;28;20084;-68
2022/03/30 00:26:13;;;;;;;34.72;16.23;;;4.50;99.90;;;;;;4997834;28;20038;-68
2022/03/30 00:28:39;;;;;;;26.42;15.27;;;4.50;99.90;;;;;;5031675;28;20045;-68
2022/03/30 00:31:04;;;;;;;30.00;15.35;;;4.50;99.90;;;;;;5032434;28;20481;-68
2022/03/30 00:33:30;;;;;;;24.52;15.38;;;4.50;99.90;;;;;;5030232;28;20125;-68
2022/03/30 00:35:56;;;;;;;29.20;16.30;;;4.50;99.90;;;;;;4998965;28;20419;-68
2022/03/30 00:38:22;;;;;;;32.20;16.17;;;4.40;99.90;;;;;;5002790;28;20034;-68
2022/03/30 00:40:48;;;;;;;29.60;16.02;;;4.50;99.90;;;;;;5001086;28;20046;-68
2022/03/30 00:43:15;;;;;;;30.98;15.55;;;4.40;99.90;;;;;;4998589;28;20114;-68
2022/03/30 00:45:41;;;;;;;29.67;14.35;;;4.40;99.90;;;;;;5026447;28;20204;-68
2022/03/30 00:48:07;;;;;;;24.08;15.07;;;4.40;99.90;;;;;;5031074;28;20417;-68
2022/03/30 00:50:33;;;;;;;24.77;15.35;;;4.40;99.90;;;;;;4994404;28;20111;-68
2022/03/30 00:52:59;;;;;;;29.13;15.45;;;4.40;99.90;;;;;;5030139;28;20473;-68
2022/03/30 00:55:25;;;;;;;30.20;15.48;;;4.40;99.90;;;;;;5028430;28;20081;-68
2022/03/30 00:57:57;;;;;;;29.85;16.35;;;4.40;99.90;;;;;;4995596;28;20041;-68
2022/03/30 01:00:23;;;;;;;27.92;16.17;;;4.40;99.90;;;;;;4999115;28;20044;-68
2022/03/30 01:02:50;;;;;;;32.28;16.92;;;4.40;99.90;;;;;;4992603;28;20058;-67
2022/03/30 01:05:16;;;;;;;30.55;15.80;;;4.30;99.90;;;;;;5029104;28;20042;-67
2022/03/30 01:07:42;;;;;;;27.02;17.27;;;4.30;99.90;;;;;;5025812;28;20363;-67
2022/03/30 01:10:10;;;;;;;27.08;16.65;;;4.30;99.90;;;;;;4996299;28;20093;-68
2022/03/30 01:12:39;;;;;;;31.30;16.85;;;4.30;99.90;;;;;;5027673;28;21049;-68
2022/03/30 01:15:09;;;;;;;30.08;16.60;;;4.20;99.90;;;;;;4980497;28;20131;-68
2022/03/30 01:17:37;;;;;;;25.88;16.00;;;4.30;99.90;;;;;;4999476;28;20056;-68
2022/03/30 01:20:04;;;;;;;33.53;16.92;;;4.20;99.90;;;;;;4999579;28;20053;-68
2022/03/30 01:22:30;;;;;;;30.70;16.80;;;4.20;99.90;;;;;;5032632;28;20104;-68
2022/03/30 01:24:55;;;;;;;28.55;16.13;;;4.20;99.90;;;;;;5001084;28;20046;-68
2022/03/30 01:27:21;;;;;;;28.27;15.88;;;4.10;99.90;;;;;;5033051;28;20210;-67
2022/03/30 01:32:31;;;;;;;31.73;15.77;;;4.10;99.90;;;;;;5030914;28;20287;-67
2022/03/30 01:35:00;;;;;;;28.98;16.30;;;4.00;99.90;;;;;;4997170;28;20484;-67
2022/03/30 01:37:28;;;;;;;29.05;16.08;;;4.00;99.90;;;;;;4994578;28;20038;-67
2022/03/30 01:39:55;;;;;;;26.90;15.40;;;3.90;99.90;;;;;;5029222;28;20136;-67
2022/03/30 01:42:21;;;;;;;26.73;15.80;;;3.90;99.90;;;;;;4993418;28;20046;-67
2022/03/30 01:44:47;;;;;;;29.17;15.82;;;3.90;99.90;;;;;;5000058;28;20129;-67
2022/03/30 01:47:13;;;;;;;33.10;15.80;;;3.80;99.90;;;;;;4998106;28;20049;-67
2022/03/30 01:49:39;;;;;;;26.23;16.80;;;3.90;99.90;;;;;;4994499;28;20433;-67
2022/03/30 01:52:05;;;;;;;27.30;16.05;;;3.80;99.90;;;;;;5026564;28;20052;-67
2022/03/30 01:54:35;;;;;;;31.67;17.15;;;3.90;99.90;;;;;;5030456;28;20089;-67
2022/03/30 01:57:01;;;;;;;39.67;18.40;;;3.90;99.90;;;;;;4988609;28;20057;-67
2022/03/30 01:59:27;;;;;;;27.35;17.85;;;4.00;99.90;;;;;;4997678;28;20046;-67
2022/03/30 02:01:53;;;;;;;29.25;16.92;;;4.00;99.90;;;;;;4994608;28;20368;-67
2022/03/30 02:04:18;;;;;;;28.73;17.50;;;4.00;99.90;;;;;;5026289;28;20050;-67
2022/03/30 02:06:44;;;;;;;34.00;17.73;;;4.00;99.90;;;;;;5000797;28;20026;-67
2022/03/30 02:09:12;;;;;;;30.17;16.98;;;4.10;99.90;;;;;;4997272;28;20064;-67
2022/03/30 02:11:39;;;;;;;28.83;17.25;;;4.10;99.90;;;;;;5028613;28;20046;-67
2022/03/30 02:14:05;;;;;;;31.92;17.08;;;4.20;99.90;;;;;;4997966;28;20039;-67
2022/03/30 02:16:31;;;;;;;32.08;17.73;;;4.20;99.90;;;;;;4997587;28;20050;-67
2022/03/30 02:18:56;;;;;;;33.58;17.92;;;4.20;99.90;;;;;;5000894;28;20103;-67
2022/03/30 02:21:24;;;;;;;33.15;17.40;;;4.20;99.90;;;;;;4998803;28;20048;-67
2022/03/30 02:23:51;;;;;;;32.80;17.25;;;4.30;99.90;;;;;;4995793;28;20045;-68
2022/03/30 02:26:18;;;;;;;31.77;16.65;;;4.30;99.90;;;;;;5028763;28;20487;-67
2022/03/30 02:28:51;;;;;;;31.27;16.70;;;4.30;99.90;;;;;;4993090;28;20037;-67
2022/03/30 02:31:17;;;;;;;31.90;17.42;;;4.30;99.90;;;;;;4994579;28;20650;-67
2022/03/30 02:33:43;;;;;;;30.63;16.90;;;4.30;99.90;;;;;;5000037;28;20048;-67
2022/03/30 02:36:09;;;;;;;30.50;16.88;;;4.30;99.90;;;;;;5025127;28;20046;-68
2022/03/30 02:38:34;;;;;;;35.05;17.33;;;4.40;99.90;;;;;;4995217;28;20042;-67
2022/03/30 02:41:03;;;;;;;32.08;17.13;;;4.40;99.90;;;;;;4995527;28;20117;-67
2022/03/30 02:43:29;;;;;;;28.95;16.50;;;4.40;99.90;;;;;;5024899;28;20120;-67
2022/03/30 02:45:54;;;;;;;27.13;15.95;;;4.50;99.90;;;;;;4993047;28;20038;-67
2022/03/30 02:48:22;;;;;;;35.90;17.02;;;4.50;99.90;;;;;;4996405;28;20042;-67
2022/03/30 02:50:54;;;;;;;34.05;17.00;;;4.50;99.90;;;;;;5024636;28;20058;-67
2022/03/30 02:53:20;;;;;;;29.08;17.60;;;4.60;99.90;;;;;;4996390;28;20049;-67
2022/03/30 02:55:47;;;;;;;31.98;17.10;;;4.60;99.90;;;;;;4994068;28;20081;-67
2022/03/30 02:58:13;;;;;;;30.00;16.83;;;4.70;99.90;;;;;;4998393;28;20121;-67
2022/03/30 03:00:40;;;;;;;28.92;17.63;;;4.70;99.90;;;;;;5025043;28;20042;-67
2022/03/30 03:03:07;;;;;;;26.63;15.93;;;4.60;99.90;;;;;;4997161;28;20046;-67
2022/03/30 03:05:34;;;;;;;30.17;16.13;;;4.70;99.90;;;;;;4996239;28;20035;-67
2022/03/30 03:08:04;;;;;;;26.77;16.60;;;4.70;99.90;;;;;;5009298;28;20050;-67
2022/03/30 03:10:31;;;;;;;30.33;17.13;;;4.70;99.90;;;;;;4995154;28;20042;-67
2022/03/30 03:12:57;;;;;;;30.20;17.23;;;4.80;99.90;;;;;;4998484;28;20043;-67
2022/03/30 03:15:23;;;;;;;32.13;16.65;;;4.80;99.90;;;;;;4998397;28;20052;-67
2022/03/30 03:17:49;;;;;;;33.85;17.25;;;4.80;99.90;;;;;;4997877;28;20046;-67
2022/03/30 03:20:16;;;;;;;32.15;17.80;;;4.80;99.90;;;;;;4994233;28;20050;-66
2022/03/30 03:22:42;;;;;;;27.88;16.77;;;4.80;99.90;;;;;;4997353;28;20057;-66
2022/03/30 03:25:08;;;;;;;33.45;18.90;;;4.90;99.90;;;;;;4994368;28;20438;-66
2022/03/30 03:27:34;;;;;;;30.52;16.90;;;4.80;99.90;;;;;;4995493;28;20042;-67
2022/03/30 03:30:00;;;;;;;29.80;17.30;;;4.90;99.90;;;;;;4995185;28;20124;-67
2022/03/30 03:32:26;;;;;;;28.92;17.13;;;4.80;99.90;;;;;;4994748;28;20101;-67
2022/03/30 03:34:52;;;;;;;33.40;17.15;;;4.80;99.90;;;;;;5000386;28;20042;-67
2022/03/30 03:37:18;;;;;;;29.98;16.75;;;4.80;99.90;;;;;;4993970;28;20101;-67
2022/03/30 03:39:45;;;;;;;32.22;17.48;;;4.80;99.90;;;;;;5019592;28;20042;-67
2022/03/30 03:42:11;;;;;;;34.85;17.48;;;4.80;99.90;;;;;;5003886;28;20062;-66
2022/03/30 03:44:37;;;;;;;29.90;17.55;;;4.80;99.90;;;;;;5001512;28;20034;-67
2022/03/30 03:47:03;;;;;;;29.98;18.90;;;4.70;99.90;;;;;;5032990;28;20420;-67
2022/03/30 03:49:29;;;;;;;32.35;17.30;;;4.80;99.90;;;;;;5004007;28;20133;-67
2022/03/30 03:51:55;;;;;;;31.20;17.67;;;4.80;99.90;;;;;;4999182;28;20130;-67
2022/03/30 03:54:21;;;;;;;31.85;17.60;;;4.80;99.90;;;;;;5032665;28;20129;-67
2022/03/30 03:56:47;;;;;;;28.67;18.52;;;4.80;99.90;;;;;;4999750;28;20569;-67
2022/03/30 03:59:13;;;;;;;33.92;19.05;;;4.80;99.90;;;;;;5003432;28;20457;-68
2022/03/30 04:01:39;;;;;;;31.33;17.90;;;4.90;99.90;;;;;;4979863;28;20104;-68
2022/03/30 04:04:06;;;;;;;33.03;18.63;;;4.80;99.90;;;;;;5029565;28;20090;-67
2022/03/30 04:06:32;;;;;;;33.33;18.38;;;4.90;99.90;;;;;;5003885;28;20078;-67
2022/03/30 04:08:57;;;;;;;28.67;17.25;;;4.90;99.90;;;;;;5000769;28;20061;-67
2022/03/30 04:11:23;;;;;;;34.47;17.40;;;4.90;99.90;;;;;;5028698;28;20038;-67
2022/03/30 04:13:49;;;;;;;26.30;17.48;;;4.80;99.90;;;;;;5015128;28;20053;-67
2022/03/30 04:16:16;;;;;;;30.38;17.67;;;4.90;99.90;;;;;;5000629;28;20450;-67
2022/03/30 04:18:43;;;;;;;32.38;17.10;;;4.90;99.90;;;;;;5030059;28;20438;-67
2022/03/30 04:21:09;;;;;;;30.25;17.02;;;4.90;99.90;;;;;;5024816;28;20046;-67
2022/03/30 04:23:35;;;;;;;37.33;18.73;;;4.90;99.90;;;;;;4998178;28;20029;-67
2022/03/30 04:26:01;;;;;;;36.53;17.95;;;4.90;99.90;;;;;;5003315;28;20097;-67
2022/03/30 04:28:27;;;;;;;28.98;15.82;;;4.90;99.90;;;;;;5001566;28;20042;-67
2022/03/30 04:30:53;;;;;;;34.20;17.27;;;4.90;99.90;;;;;;5000929;28;20542;-67
2022/03/30 04:33:18;;;;;;;31.48;17.55;;;4.90;99.90;;;;;;4984609;28;20516;-67
2022/03/30 04:35:44;;;;;;;26.80;16.88;;;4.90;99.90;;;;;;5006702;28;20457;-67
2022/03/30 04:38:10;;;;;;;28.85;15.55;;;5.00;99.90;;;;;;5002046;28;20468;-67
2022/03/30 04:40:36;;;;;;;34.22;16.75;;;5.00;99.90;;;;;;5034729;28;20714;-67
2022/03/30 04:43:01;;;;;;;29.95;15.35;;;5.00;99.90;;;;;;5037125;28;20189;-67
2022/03/30 04:45:27;;;;;;;32.58;16.88;;;5.00;99.90;;;;;;4999096;28;20030;-67
2022/03/30 04:47:53;;;;;;;29.08;16.13;;;5.00;99.90;;;;;;5036260;28;20077;-67
2022/03/30 04:50:23;;;;;;;36.53;16.30;;;5.00;99.90;;;;;;5002473;28;20056;-67
2022/03/30 04:52:51;;;;;;;30.77;16.48;;;5.00;99.90;;;;;;5006510;28;20092;-67
2022/03/30 04:55:16;;;;;;;27.63;16.50;;;5.00;99.90;;;;;;5030518;28;20579;-67
2022/03/30 04:57:42;;;;;;;28.38;16.35;;;5.10;99.90;;;;;;5003900;28;20205;-67
2022/03/30 05:00:12;;;;;;;31.27;15.15;;;5.10;99.90;;;;;;5014491;28;20054;-67
2022/03/30 05:02:40;;;;;;;36.30;16.48;;;5.10;99.90;;;;;;4998603;28;20034;-67
2022/03/30 05:05:08;;;;;;;31.13;15.27;;;5.10;99.90;;;;;;4999866;28;20050;-67
2022/03/30 05:07:33;;;;;;;29.90;16.45;;;5.10;99.90;;;;;;5023111;28;20541;-67
2022/03/30 05:09:59;;;;;;;30.40;16.52;;;5.00;99.90;;;;;;5000991;28;20069;-67
2022/03/30 05:12:25;;;;;;;25.15;15.30;;;5.10;99.90;;;;;;5005641;28;20045;-67
2022/03/30 05:14:51;;;;;;;25.45;14.10;;;5.00;99.90;;;;;;5035564;28;20050;-67
2022/03/30 05:17:17;;;;;;;30.30;15.30;;;5.10;99.90;;;;;;5004730;28;20049;-67
2022/03/30 05:19:46;;;;;;;38.10;16.08;;;5.20;99.90;;;;;;5031218;28;20446;-67
2022/03/30 05:22:11;;;;;;;25.95;14.90;;;5.20;99.90;;;;;;5004472;28;20116;-67
2022/03/30 05:24:37;;;;;;;28.60;15.20;;;5.20;99.90;;;;;;4998273;28;20061;-68
2022/03/30 05:27:04;;;;;;;24.17;13.77;;;5.20;99.90;;;;;;5035207;28;20048;-67
2022/03/30 05:29:30;;;;;;;28.08;13.60;;;5.30;99.90;;;;;;5033484;28;20101;-67
2022/03/30 05:31:56;;;;;;;26.10;12.85;;;5.30;99.90;;;;;;5002962;28;20037;-67
2022/03/30 05:34:24;;;;;;;17.10;11.05;;;5.30;99.90;;;;;;5001647;28;20052;-67
2022/03/30 05:36:50;;;;;;;21.67;11.80;;;5.30;99.90;;;;;;4999134;28;20115;-68
2022/03/30 05:39:16;;;;;;;23.83;11.10;;;5.30;99.90;;;;;;4998285;28;20050;-68
2022/03/30 05:41:41;;;;;;;15.68;9.23;;;5.30;99.90;;;;;;5004562;28;20081;-67
2022/03/30 05:44:07;;;;;;;15.05;7.97;;;5.40;99.90;;;;;;5001001;28;20049;-67
2022/03/30 05:46:35;;;;;;;10.93;6.03;;;5.30;99.90;;;;;;4993047;28;20482;-67
2022/03/30 05:49:00;;;;;;;4.20;2.30;;;5.40;99.90;;;;;;5001930;28;20037;-67
2022/03/30 05:51:26;;;;;;;2.20;1.20;;;5.30;99.90;;;;;;4994406;28;20047;-67
2022/03/30 05:53:52;;;;;;;2.25;0.95;;;5.30;99.90;;;;;;5002795;28;20052;-69
2022/03/30 05:56:17;;;;;;;3.78;1.33;;;5.40;99.90;;;;;;4996388;28;20461;-68
2022/03/30 05:58:43;;;;;;;1.15;0.50;;;5.40;99.90;;;;;;4999334;28;20054;-68
2022/03/30 06:01:09;;;;;;;4.97;0.60;;;5.40;99.90;;;;;;4991954;28;20130;-67
2022/03/30 06:03:37;;;;;;;1.88;0.55;;;5.40;99.90;;;;;;5001871;28;20478;-67
2022/03/30 06:06:05;;;;;;;1.30;0.50;;;5.40;99.90;;;;;;5002844;28;20238;-66
2022/03/30 06:08:32;;;;;;;0.95;0.30;;;5.50;99.90;;;;;;5003815;28;20112;-66
2022/03/30 06:10:57;;;;;;;0.93;0.65;;;5.50;99.90;;;;;;5008085;28;20037;-66
2022/03/30 06:13:23;;;;;;;2.10;0.70;;;5.40;99.90;;;;;;4986085;28;20496;-67
2022/03/30 06:15:49;;;;;;;1.17;0.80;;;5.40;99.90;;;;;;5003189;28;20064;-67
2022/03/30 06:18:15;;;;;;;1.58;0.75;;;5.40;99.90;;;;;;5003556;28;20104;-67
2022/03/30 06:20:41;;;;;;;2.20;1.23;;;5.50;99.90;;;;;;5004360;28;20148;-67
2022/03/30 06:23:07;;;;;;;2.65;1.80;;;5.50;99.90;;;;;;5003790;28;20038;-67
2022/03/30 06:25:33;;;;;;;2.08;1.33;;;5.50;99.90;;;;;;5001760;28;20034;-67
2022/03/30 06:27:59;;;;;;;3.10;1.40;;;5.60;99.90;;;;;;5005511;28;20038;-67
2022/03/30 06:30:25;;;;;;;3.20;1.30;;;5.60;99.90;;;;;;5015208;28;20042;-67
2022/03/30 06:32:52;;;;;;;1.88;1.52;;;5.60;99.90;;;;;;5000116;28;20060;-67
2022/03/30 06:35:19;;;;;;;2.38;1.65;;;5.60;99.90;;;;;;5007605;28;20034;-67
2022/03/30 06:37:47;;;;;;;3.17;1.73;;;5.70;99.90;;;;;;4995791;28;20381;-67
2022/03/30 06:40:14;;;;;;;2.70;1.60;;;5.70;99.90;;;;;;5002735;28;20164;-67
2022/03/30 06:42:41;;;;;;;2.22;1.40;;;5.80;99.90;;;;;;5002434;28;20085;-67
2022/03/30 06:45:09;;;;;;;4.18;1.70;;;5.90;99.90;;;;;;4983614;28;20078;-67
2022/03/30 06:47:35;;;;;;;2.72;1.45;;;5.90;99.90;;;;;;5026431;28;20498;-67
2022/03/30 06:50:01;;;;;;;3.33;1.80;;;5.90;99.90;;;;;;5000687;28;20042;-67
2022/03/30 06:52:28;;;;;;;2.95;1.67;;;6.00;99.90;;;;;;4994791;28;20049;-67
2022/03/30 06:54:54;;;;;;;4.43;1.95;;;6.20;99.90;;;;;;5000589;28;20042;-66
2022/03/30 06:57:22;;;;;;;4.97;1.75;;;6.30;99.90;;;;;;4997831;28;20065;-67
2022/03/30 06:59:47;;;;;;;3.85;1.60;;;6.30;99.90;;;;;;5001488;28;20396;-67
2022/03/30 07:02:13;;;;;;;3.58;1.42;;;6.30;99.90;;;;;;5000964;28;20370;-67
2022/03/30 07:04:39;;;;;;;2.28;1.42;;;6.40;99.90;;;;;;4999068;28;20050;-67
2022/03/30 07:12:35;;;;;;;1.40;1.15;;;6.40;99.90;;;;;;5029789;28;20703;-68
2022/03/30 07:15:01;;;;;;;2.25;1.98;;;6.50;99.90;;;;;;5006324;28;20117;-67
2022/03/30 07:17:27;;;;;;;1.23;1.08;;;6.60;99.90;;;;;;5004090;28;20117;-66
2022/03/30 07:19:53;;;;;;;2.60;1.10;;;6.70;99.90;;;;;;5004076;28;20050;-66
2022/03/30 07:22:18;;;;;;;1.67;1.40;;;6.80;99.90;;;;;;5006722;28;20036;-67
2022/03/30 07:24:44;;;;;;;2.42;1.60;;;6.80;99.90;;;;;;5000546;28;20116;-67
2022/03/30 07:27:10;;;;;;;1.80;1.60;;;6.80;99.90;;;;;;5003731;28;20125;-67
2022/03/30 07:29:36;;;;;;;3.38;1.95;;;6.80;99.90;;;;;;5003422;28;20108;-67
2022/03/30 07:32:03;;;;;;;2.72;1.50;;;6.80;99.90;;;;;;5003777;28;20052;-67
2022/03/30 07:34:29;;;;;;;2.80;1.25;;;6.90;99.90;;;;;;5000926;28;20042;-67
2022/03/30 07:36:56;;;;;;;2.03;1.05;;;6.90;99.90;;;;;;4998833;28;20053;-67
2022/03/30 07:39:21;;;;;;;3.83;1.30;;;7.00;99.90;;;;;;5006536;28;20088;-67
2022/03/30 07:41:47;;;;;;;2.05;1.30;;;7.20;99.90;;;;;;5002094;28;20050;-68
2022/03/30 07:44:13;;;;;;;2.45;0.93;;;7.40;99.90;;;;;;5003483;28;20046;-67
2022/03/30 07:46:39;;;;;;;2.88;1.42;;;7.60;99.90;;;;;;5004624;28;20540;-67
2022/03/30 07:49:04;;;;;;;1.63;1.05;;;7.80;99.90;;;;;;4999429;28;20499;-67
2022/03/30 07:51:30;;;;;;;1.70;1.10;;;8.00;99.90;;;;;;5002203;28;20509;-67
2022/03/30 07:53:56;;;;;;;2.72;0.93;;;8.00;99.90;;;;;;5006711;28;20038;-67
2022/03/30 07:56:21;;;;;;;2.67;1.10;;;8.10;99.90;;;;;;5005998;28;20041;-67
2022/03/30 07:58:49;;;;;;;3.50;1.20;;;8.10;99.90;;;;;;5002599;28;20045;-67
2022/03/30 08:01:16;;;;;;;3.90;1.05;;;7.70;99.90;;;;;;4999868;28;20064;-67
2022/03/30 08:03:44;;;;;;;4.72;1.05;;;7.60;99.90;;;;;;5001993;28;20038;-67
2022/03/30 08:06:10;;;;;;;3.83;0.95;;;7.40;99.90;;;;;;5003670;28;20042;-68
2022/03/30 08:08:36;;;;;;;5.28;1.13;;;7.50;99.90;;;;;;5002674;28;20041;-68
2022/03/30 08:11:02;;;;;;;3.60;0.95;;;7.60;99.90;;;;;;5001522;28;20397;-67
2022/03/30 08:13:28;;;;;;;3.83;1.25;;;7.60;99.90;;;;;;5005780;28;20103;-67
2022/03/30 08:15:54;;;;;;;2.10;0.93;;;7.60;99.90;;;;;;5004444;28;20425;-66
2022/03/30 08:18:19;;;;;;;4.72;1.52;;;7.70;99.80;;;;;;5003832;28;20212;-68
2022/03/30 08:23:29;;;;;;;3.70;1.30;;;7.60;98.50;;;;;;5006725;28;20604;-67
2022/03/30 08:25:55;;;;;;;4.85;1.40;;;7.60;98.90;;;;;;5005771;28;20309;-67
2022/03/30 08:28:21;;;;;;;2.53;1.38;;;7.70;98.60;;;;;;5003191;28;20127;-67
2022/03/30 08:30:48;;;;;;;3.20;1.33;;;7.90;98.60;;;;;;4996528;28;20603;-67
2022/03/30 08:33:16;;;;;;;4.38;2.25;;;7.90;97.60;;;;;;5015604;28;20038;-67
2022/03/30 08:35:42;;;;;;;3.53;1.88;;;7.90;98.20;;;;;;5007581;28;20652;-67
2022/03/30 08:38:08;;;;;;;6.10;2.97;;;8.10;98.20;;;;;;5003209;28;20038;-66
2022/03/30 08:40:34;;;;;;;4.32;2.50;;;8.20;97.80;;;;;;4996745;28;20045;-67
2022/03/30 08:43:00;;;;;;;4.38;3.15;;;8.30;97.70;;;;;;5001792;28;20056;-67
2022/03/30 08:45:26;;;;;;;5.53;3.58;;;8.50;98.20;;;;;;5000929;28;20049;-67
2022/03/30 08:47:52;;;;;;;3.70;3.33;;;8.70;98.30;;;;;;5005811;28;20341;-67
2022/03/30 08:50:19;;;;;;;4.97;4.05;;;8.70;97.20;;;;;;5000051;28;20058;-67
2022/03/30 08:52:49;;;;;;;5.53;2.88;;;8.70;97.00;;;;;;5031296;28;20057;-67
2022/03/30 08:55:16;;;;;;;4.63;2.20;;;8.60;96.20;;;;;;5003517;28;20366;-68
2022/03/30 08:57:41;;;;;;;4.00;2.45;;;8.40;95.10;;;;;;5001329;28;20529;-68
2022/03/30 09:00:13;;;;;;;5.68;2.22;;;8.40;94.80;;;;;;5003825;28;20038;-67
2022/03/30 09:02:42;;;;;;;5.03;2.70;;;8.60;95.00;;;;;;5029610;28;20064;-67
2022/03/30 09:05:28;;;;;;;4.78;2.90;;;8.80;95.00;;;;;;5001585;28;20121;-67
2022/03/30 09:08:07;;;;;;;3.63;2.60;;;9.10;94.20;;;;;;4999480;28;20117;-68
2022/03/30 09:10:32;;;;;;;3.47;2.20;;;9.00;93.70;;;;;;5003600;28;20087;-68
2022/03/30 09:12:58;;;;;;;5.40;2.40;;;9.10;94.00;;;;;;5007184;28;20053;-68
2022/03/30 09:15:25;;;;;;;3.63;1.65;;;9.10;93.20;;;;;;5003637;28;20120;-68
2022/03/30 09:17:59;;;;;;;6.88;1.80;;;8.90;92.50;;;;;;5002511;28;20049;-68
2022/03/30 09:20:25;;;;;;;3.40;1.25;;;8.80;92.30;;;;;;5001703;28;20490;-67
2022/03/30 09:22:57;;;;;;;4.68;1.20;;;8.80;91.80;;;;;;4993807;28;20065;-67
2022/03/30 09:25:28;;;;;;;4.40;1.00;;;9.00;91.50;;;;;;4998828;28;20061;-68
2022/03/30 09:27:56;;;;;;;2.80;1.08;;;9.00;90.00;;;;;;4994440;28;20043;-68
2022/03/30 09:30:24;;;;;;;2.72;0.70;;;9.10;90.20;;;;;;5003460;28;20042;-66
2022/03/30 09:32:52;;;;;;;2.90;0.90;;;9.30;90.40;;;;;;4997329;28;20129;-67
2022/03/30 09:35:43;;;;;;;2.45;1.23;;;9.40;90.90;;;;;;5000957;28;20070;-68
2022/03/30 09:38:14;;;;;;;3.33;2.17;;;9.50;88.80;;;;;;4995754;28;20042;-67
2022/03/30 09:40:55;;;;;;;4.45;2.30;;;9.30;89.10;;;;;;5004206;28;20128;-67
2022/03/30 09:43:26;;;;;;;3.40;2.53;;;9.20;88.40;;;;;;5030048;28;20527;-67
2022/03/30 09:46:13;;;;;;;4.50;2.80;;;9.10;89.40;;;;;;5003596;28;20148;-67
2022/03/30 09:48:51;;;;;;;3.33;2.13;;;9.10;89.40;;;;;;4998022;28;20041;-67
2022/03/30 09:51:18;;;;;;;5.35;2.35;;;8.80;89.40;;;;;;5002785;28;20049;-67
2022/03/30 09:53:45;;;;;;;4.80;2.60;;;8.60;90.40;;;;;;4999350;28;20117;-67
2022/03/30 09:56:23;;;;;;;4.60;1.92;;;8.30;91.10;;;;;;4999438;28;20387;-67
2022/03/30 09:58:57;;;;;;;7.00;1.88;;;8.00;91.50;;;;;;4999978;28;20073;-67
2022/03/30 10:01:23;;;;;;;5.25;1.20;;;8.00;92.60;;;;;;5000529;28;20483;-67
2022/03/30 10:03:52;;;;;;;5.30;0.70;;;8.00;92.80;;;;;;4999890;28;20058;-67
2022/03/30 10:06:19;;;;;;;4.93;0.60;;;8.10;93.10;;;;;;5001034;28;20046;-67
2022/03/30 10:08:46;;;;;;;9.10;0.85;;;8.20;93.50;;;;;;4999223;28;20450;-67
2022/03/30 10:11:15;;;;;;;3.58;0.75;;;8.20;93.60;;;;;;5004007;28;20115;-67
2022/03/30 10:13:43;;;;;;;3.85;0.90;;;8.10;93.50;;;;;;4995872;28;20112;-67
2022/03/30 10:16:10;;;;;;;3.05;0.63;;;8.30;92.50;;;;;;4983496;28;20053;-67
2022/03/30 10:18:37;;;;;;;5.03;1.67;;;8.40;92.50;;;;;;4998339;28;20106;-67
2022/03/30 10:21:16;;;;;;;4.50;1.25;;;8.50;92.20;;;;;;4995470;28;20042;-67
2022/03/30 10:24:14;;;;;;;3.00;0.70;;;8.60;92.00;;;;;;4999671;28;20486;-67
2022/03/30 10:26:49;;;;;;;4.32;0.90;;;8.70;92.70;;;;;;5003412;28;20471;-67
2022/03/30 10:29:18;;;;;;;5.07;1.42;;;9.00;91.80;;;;;;4995226;28;20049;-68
2022/03/30 10:32:14;;;;;;;3.38;0.70;;;9.20;91.80;;;;;;4996872;28;20054;-67
2022/03/30 10:34:50;;;;;;;2.55;0.80;;;9.50;92.20;;;;;;4981790;28;20089;-67
2022/03/30 10:37:29;;;;;;;4.93;1.10;;;9.90;91.70;;;;;;4997957;28;20603;-67
2022/03/30 10:40:17;;;;;;;3.05;0.70;;;9.90;91.00;;;;;;5036818;28;20172;-67
2022/03/30 10:42:46;;;;;;;3.25;0.68;;;9.90;90.20;;;;;;4999763;28;20084;-67
2022/03/30 10:45:44;;;;;;;2.22;0.55;;;9.60;87.60;;;;;;5002773;28;20038;-66
2022/03/30 10:48:28;;;;;;;2.53;0.65;;;9.50;85.80;;;;;;5002773;28;20052;-67
2022/03/30 10:51:01;;;;;;;3.00;0.90;;;9.60;85.50;;;;;;5000983;28;20060;-67
2022/03/30 10:53:39;;;;;;;3.55;0.80;;;9.60;87.20;;;;;;5003895;28;20796;-66
2022/03/30 10:56:07;;;;;;;2.75;0.70;;;9.80;87.90;;;;;;5003199;28;20121;-67
2022/03/30 10:58:34;;;;;;;3.40;0.70;;;9.80;84.80;;;;;;5002662;28;20097;-66
2022/03/30 11:01:13;;;;;;;5.13;0.98;;;9.80;86.40;;;;;;4999174;28;20058;-67
2022/03/30 11:04:02;;;;;;;3.53;0.80;;;9.80;83.50;;;;;;5035286;28;20054;-67
2022/03/30 11:06:29;;;;;;;4.55;0.95;;;9.70;82.80;;;;;;5006722;28;20363;-67
2022/03/30 11:08:58;;;;;;;3.67;0.70;;;9.50;84.00;;;;;;5002446;28;20185;-67
2022/03/30 11:11:26;;;;;;;2.33;0.60;;;9.40;84.90;;;;;;4995414;28;20144;-67
2022/03/30 11:14:26;;;;;;;3.92;0.90;;;9.40;85.00;;;;;;5002542;28;20054;-67
2022/03/30 11:16:56;;;;;;;3.53;0.55;;;9.20;85.30;;;;;;4997158;28;20199;-68
2022/03/30 11:19:29;;;;;;;4.97;0.90;;;9.10;86.40;;;;;;5006802;28;20042;-68
2022/03/30 11:22:08;;;;;;;2.92;0.75;;;8.70;86.30;;;;;;4996548;28;20066;-68
2022/03/30 11:24:35;;;;;;;3.22;0.95;;;8.40;88.20;;;;;;5005252;28;20099;-68
2022/03/30 11:27:00;;;;;;;2.05;0.47;;;8.20;89.00;;;;;;5005399;28;20051;-67
2022/03/30 11:29:41;;;;;;;4.35;0.95;;;8.20;90.10;;;;;;5001726;28;20026;-67
2022/03/30 11:32:34;;;;;;;3.10;0.65;;;8.10;90.40;;;;;;4996860;28;20501;-67
2022/03/30 11:35:03;;;;;;;3.03;0.95;;;8.10;90.20;;;;;;5002353;28;20052;-67
2022/03/30 11:37:35;;;;;;;4.50;1.23;;;8.10;90.30;;;;;;5000146;28;20046;-67
2022/03/30 11:40:10;;;;;;;4.78;0.90;;;8.10;90.10;;;;;;5002595;28;20065;-68
2022/03/30 11:42:38;;;;;;;5.40;0.60;;;8.30;90.30;;;;;;4982905;28;20054;-68
2022/03/30 11:45:19;;;;;;;5.28;1.40;;;8.60;88.60;;;;;;5000033;28;20432;-68
2022/03/30 11:47:54;;;;;;;2.33;0.60;;;8.80;87.90;;;;;;5001657;28;20046;-68
2022/03/30 11:50:29;;;;;;;4.40;0.80;;;9.10;87.70;;;;;;5001653;28;20042;-67
2022/03/30 11:52:56;;;;;;;4.25;0.65;;;9.30;86.60;;;;;;5003641;28;20065;-67
2022/03/30 11:55:23;;;;;;;2.92;0.40;;;9.50;85.00;;;;;;5001484;28;20141;-67
2022/03/30 11:57:51;;;;;;;2.50;0.65;;;9.50;84.20;;;;;;5033890;28;20045;-67
2022/03/30 12:00:18;;;;;;;1.85;0.50;;;9.50;84.00;;;;;;5005688;28;20472;-67
2022/03/30 12:02:45;;;;;;;2.63;0.50;;;9.60;83.10;;;;;;5001926;28;20129;-67
2022/03/30 12:05:11;;;;;;;14.40;0.93;;;9.40;82.20;;;;;;5004304;28;20057;-67
2022/03/30 12:07:39;;;;;;;3.72;0.88;;;9.10;82.20;;;;;;5004790;28;20406;-67
2022/03/30 12:10:08;;;;;;;3.67;0.73;;;9.00;84.10;;;;;;5007145;28;20144;-67
2022/03/30 12:12:36;;;;;;;3.90;0.80;;;8.90;83.70;;;;;;5003399;28;20034;-67
2022/03/30 12:15:11;;;;;;;2.58;0.50;;;9.10;84.20;;;;;;5004575;28;20038;-67
2022/03/30 12:17:37;;;;;;;;;;;9.30;82.50;;;;;;5004050;28;20496;-68
2022/03/30 12:20:05;;;;;;;2.65;0.73;;;9.20;78.90;;;;;;5037481;28;19921;-67
2022/03/30 12:22:32;;;;;;;7.10;1.10;;;9.20;79.90;;;;;;5000038;28;20077;-68
2022/03/30 12:24:58;;;;;;;3.58;0.60;;;9.20;79.80;;;;;;5004247;28;20030;-67
2022/03/30 12:27:25;;;;;;;2.45;0.68;;;9.40;80.00;;;;;;5000674;28;20066;-68
2022/03/30 12:29:56;;;;;;;2.13;0.80;;;9.50;78.60;;;;;;4985728;28;20129;-68
2022/03/30 12:32:25;;;;;;;4.43;0.70;;;9.70;77.60;;;;;;5000923;28;20046;-68
2022/03/30 12:35:06;;;;;;;3.47;0.52;;;10.00;76.00;;;;;;5005111;28;20058;-67
2022/03/30 12:37:35;;;;;;;4.25;0.60;;;9.80;74.50;;;;;;5004256;28;20081;-68
2022/03/30 12:40:14;;;;;;;3.60;0.52;;;9.50;76.50;;;;;;5002021;28;20494;-69
2022/03/30 12:42:41;;;;;;;3.70;0.63;;;9.10;77.40;;;;;;5004976;28;20038;-68
2022/03/30 12:45:14;;;;;;;4.65;0.63;;;9.00;79.20;;;;;;4998182;28;20398;-69
2022/03/30 12:47:53;;;;;;;6.32;0.90;;;8.70;79.10;;;;;;5001937;28;20040;-69
2022/03/30 12:50:26;;;;;;;2.30;0.80;;;8.40;80.70;;;;;;5001303;28;20125;-68
2022/03/30 12:52:53;;;;;;;5.38;0.70;;;8.40;81.20;;;;;;5019989;28;20082;-68
2022/03/30 12:55:27;;;;;;;5.05;0.70;;;8.50;81.30;;;;;;5004846;28;20522;-68
2022/03/30 12:57:55;;;;;;;2.35;0.70;;;8.40;81.30;;;;;;5002719;28;20121;-69
2022/03/30 13:00:28;;;;;;;3.47;0.60;;;8.20;80.60;;;;;;4994618;28;20050;-68
2022/03/30 13:03:13;;;;;;;4.00;0.93;;;8.10;80.90;;;;;;5005405;28;20045;-69
2022/03/30 13:05:48;;;;;;;2.90;0.70;;;8.20;81.80;;;;;;4990905;28;20046;-69